< < Back
Terminal Aerodrome Forecast


Current Version              Previous Versions:   1  2  3  4  5  6  7  8  9  

Terminal Aerodrome Forecast

407
FTUS44 KBMX 011734
TAFMGM
TAF
KMGM 011734Z 0118/0218 VRB04KT P6SM SCT050
     FM020200 VRB03KT P6SM SCT250=

Latest METAR

959
SAUS80 KWBC 021000
MTRMGM
METAR KMGM 020953Z AUTO 00000KT 9SM CLR 23/21 A3006 RMK AO2 SLP175
T02330211


USA.gov is the U.S. government's official web portal to all federal, state and local government web resources and services.